SCIESCTB

Guest
Details From SCIE - Carriel Sur Intl
To SCTB - Eulogio Sanchez
Flight Number -
Tags generated
Created
Modified
Stats Distance 239 nm / 442 km
Max Altitude 29,900 ft / 9,114 m
Waypoints 4
Social Downloads 1
Likes 0
Share

Download

Looking for another format? Having issues loading an existing format? Contact us
Advertisement - Login to hide

Notes

Basic altitude profile: - Ascent Rate: 2500ft/min - Ascent Speed: 100kts - Cruise Altitude: 12000ft - Cruise Speed: 140kts - Descent Rate: 1500ft/min - Descent Speed: 150kts Options: - Use NATs: yes - Use PACOTS: yes - Use low airways: yes - Use high airways: yes

Route

SCIE CTN W103 TAL SCTB

ID Type Via Altitude (ft/m) Position (lat/lon) Dist (leg/tot) Name
O SCIE APT - 0 / 0 -36.77265 / -73.06311 - / 0 nm Carriel Sur Intl
CTN NDB - 29,900 / 9,114 -35.30556 / -72.37944 94 / 94 nm CONSTITUCION NDB
TAL NDB W103 (AWY-LO) 9,000 / 2,743 -33.68306 / -70.93278 120 / 215 nm TALAGANTE NDB
O SCTB APT - 0 / 0 -33.45626 / -70.54667 23 / 238 nm Eulogio Sanchez

Altitude Profile

Advertisement - Login to hide

Weather


0- 5 10 15 20 25 30 35+ Temperature / °C

Clouds and Precipitation
Forecast for 2020-10-24 18:00 UTC. Updated 5 hours ago

Ground ~20,000 ft ~40,000 ft Winds

SCIE

Details ICAO SCIE (CCP)
Name Concepcion-Carriel Sur Intl
Region Chile
Timezone America/Santiago (UTC-3.0)
Stats Elevation 26 ft / 8 m (AMSL)
Location -36.771400° -73.062500°
Runways 1
Magnetic Variation 5.392° E

METAR

SCIE 242000Z 27005KT 9999 SCT012 BKN049 13/09 Q1019

Decode

TAF

TAF SCIE 241628Z 2418/2518 22012KT 8000 SHRA SCT008 BKN020 TX13/2418Z TN07/2510Z BECMG 2421/2422 9999 NSW FEW020 SCT040 BECMG 2500/2502 21005KT CAVOK TEMPO 2506/2512 17004KT 5000 BR FEW008 SCT025 BECMG 2515/2517 20012KT

Decode

Departure Runways

ID Width Length Bearing (true/mag) Surface Threshold Overrun Markings Lighting
02 148 ft / 45 m 8,556 ft / 2,608 m 25.03° / 19.64° ASPHALT 0 ft / 0 m 0 ft / 0 m PREC-APP CENTERLINE EDGE THRESHOLD ALSF-II TDZ
20 148 ft / 45 m 8,556 ft / 2,608 m 205.02° / 199.63° ASPHALT 0 ft / 0 m 0 ft / 0 m APP CENTERLINE EDGE THRESHOLD REIL-OMNI

SCTB

Details ICAO SCTB
Name Eulogio Sanchez
Region Chile
Timezone America/Santiago (UTC-3.0)
Stats Elevation 2,129 ft / 649 m (AMSL)
Location -33.456200° -70.546700°
Runways 1
Magnetic Variation 1.160° E

METAR

SCTB 242000Z 25009KT 9999 FEW060 23/07 Q1016

Decode

TAF

Not found

Destination Runways

ID Width Length Bearing (true/mag) Surface Threshold Overrun Markings Lighting
01 98 ft / 30 m 3,760 ft / 1,146 m 13.29° / 12.13° ASPHALT 0 ft / 0 m 0 ft / 0 m PREC-APP CENTERLINE EDGE THRESHOLD
19 98 ft / 30 m 3,760 ft / 1,146 m 193.28° / 192.12° ASPHALT 584 ft / 178 m 0 ft / 0 m PREC-APP CENTERLINE EDGE THRESHOLD

Popular Alternatives